Time;durP1;ratioP1;P1;durP2;ratioP2;P2;SDS_P1;SDS_P2;PMS_P1;PMS_P2;Temp;Humidity;BMP_temperature;BMP_pressure;BME280_temperature;BME280_humidity;BME280_pressure;Samples;Min_cycle;Max_cycle;Signal;HPM_P1;HPM_P2
2023/10/10 00:01:30;;;;;;;17.38;8.60;;;15.00;99.90;;;;;;5047608;28;20025;-73
2023/10/10 00:03:55;;;;;;;17.85;9.13;;;15.00;99.90;;;;;;5065887;28;20009;-73
2023/10/10 00:06:22;;;;;;;18.75;9.85;;;15.00;99.90;;;;;;5053473;28;20109;-73
2023/10/10 00:08:50;;;;;;;17.73;9.18;;;14.90;99.90;;;;;;5049188;28;20041;-73
2023/10/10 00:11:18;;;;;;;17.67;8.73;;;14.90;99.90;;;;;;5066732;28;20386;-73
2023/10/10 00:13:52;;;;;;;16.55;9.32;;;14.90;99.90;;;;;;5046285;28;20037;-73
2023/10/10 00:16:35;;;;;;;15.77;9.35;;;14.80;99.90;;;;;;5066013;28;20017;-73
2023/10/10 00:19:43;;;;;;;18.70;9.07;;;14.80;99.90;;;;;;5055015;28;20044;-73
2023/10/10 00:22:04;;;;;;;21.75;9.25;;;14.80;99.90;;;;;;5063450;28;20033;-73
2023/10/10 00:24:32;;;;;;;16.13;8.85;;;14.80;99.90;;;;;;5066047;28;20088;-73
2023/10/10 00:27:12;;;;;;;19.42;8.50;;;14.80;99.90;;;;;;5066205;28;20013;-73
2023/10/10 00:29:48;;;;;;;15.35;8.00;;;14.70;99.90;;;;;;5065453;28;20022;-73
2023/10/10 00:32:22;;;;;;;15.55;8.45;;;14.70;99.90;;;;;;5066058;28;20021;-74
2023/10/10 00:34:49;;;;;;;18.13;9.32;;;14.60;99.90;;;;;;5065673;28;20040;-74
2023/10/10 00:37:17;;;;;;;16.48;8.48;;;14.60;99.90;;;;;;5045681;28;20036;-73
2023/10/10 00:39:52;;;;;;;22.27;9.30;;;14.60;99.90;;;;;;5065190;28;20021;-73
2023/10/10 00:42:36;;;;;;;21.25;8.52;;;14.60;99.90;;;;;;5052133;28;20025;-73
2023/10/10 00:45:09;;;;;;;17.70;8.60;;;14.60;99.90;;;;;;5065398;28;20043;-73
2023/10/10 00:47:52;;;;;;;16.65;8.68;;;14.60;99.90;;;;;;5063937;28;20029;-73
2023/10/10 00:50:20;;;;;;;15.95;8.35;;;14.60;99.90;;;;;;5064222;28;20026;-73
2023/10/10 00:52:52;;;;;;;17.48;8.45;;;14.50;99.90;;;;;;5066217;28;20136;-74
2023/10/10 00:55:24;;;;;;;16.23;8.27;;;14.50;99.90;;;;;;5066066;28;20037;-73
2023/10/10 00:57:55;;;;;;;16.15;9.05;;;14.50;99.90;;;;;;5051743;28;20036;-73
2023/10/10 01:00:25;;;;;;;16.20;8.05;;;14.50;99.90;;;;;;5069030;28;20049;-72
2023/10/10 01:02:51;;;;;;;15.13;8.85;;;14.50;99.90;;;;;;5055484;28;20017;-73
2023/10/10 01:05:23;;;;;;;19.05;8.30;;;14.50;99.90;;;;;;5052946;28;20025;-73
2023/10/10 01:07:51;;;;;;;14.00;7.25;;;14.50;99.90;;;;;;5069101;28;20021;-74
2023/10/10 01:10:19;;;;;;;13.95;7.82;;;14.50;99.90;;;;;;5068722;28;20032;-73
2023/10/10 01:12:47;;;;;;;13.82;8.45;;;14.50;99.90;;;;;;5051711;28;20056;-73
2023/10/10 01:15:25;;;;;;;18.33;9.18;;;14.50;99.90;;;;;;5070276;28;20042;-73
2023/10/10 01:17:51;;;;;;;14.15;8.18;;;14.40;99.90;;;;;;5070837;28;20082;-74
2023/10/10 01:20:18;;;;;;;15.07;8.10;;;14.40;99.90;;;;;;5052603;28;20025;-72
2023/10/10 01:22:51;;;;;;;16.45;8.25;;;14.40;99.90;;;;;;5069904;28;20039;-74
2023/10/10 01:28:05;;;;;;;20.35;9.85;;;14.40;99.90;;;;;;5068972;28;20025;-72
2023/10/10 01:30:44;;;;;;;17.63;8.55;;;14.30;99.90;;;;;;5050233;28;20036;-73
2023/10/10 01:33:22;;;;;;;14.50;7.57;;;14.30;99.90;;;;;;5049086;28;20036;-74
2023/10/10 01:35:49;;;;;;;14.90;8.13;;;14.30;99.90;;;;;;5068812;28;20036;-72
2023/10/10 01:38:47;;;;;;;15.68;9.38;;;14.20;99.90;;;;;;5068251;28;20059;-73
2023/10/10 01:41:22;;;;;;;18.50;8.73;;;14.20;99.90;;;;;;5051880;28;20051;-73
2023/10/10 01:43:53;;;;;;;13.88;8.07;;;14.20;99.90;;;;;;5053119;28;20085;-73
2023/10/10 01:46:27;;;;;;;15.18;8.60;;;14.10;99.90;;;;;;5068686;28;20017;-72
2023/10/10 01:48:54;;;;;;;16.48;8.85;;;14.10;99.90;;;;;;5067778;28;20029;-73
2023/10/10 01:51:24;;;;;;;19.25;8.60;;;14.10;99.90;;;;;;5066924;28;20067;-73
2023/10/10 01:53:55;;;;;;;14.38;7.80;;;14.10;99.90;;;;;;5051737;28;20048;-73
2023/10/10 01:56:26;;;;;;;20.23;8.82;;;14.10;99.90;;;;;;5050816;28;20028;-72
2023/10/10 01:58:55;;;;;;;17.80;8.88;;;14.10;99.90;;;;;;5068665;28;20020;-74
2023/10/10 02:01:23;;;;;;;14.02;8.07;;;14.10;99.90;;;;;;5069420;28;20017;-73
2023/10/10 02:03:53;;;;;;;13.02;7.38;;;14.10;99.90;;;;;;5055120;28;20029;-73
2023/10/10 02:06:26;;;;;;;14.50;8.10;;;14.10;99.90;;;;;;5049856;28;20025;-73
2023/10/10 02:12:04;;;;;;;14.93;8.82;;;14.00;99.90;;;;;;4990846;28;20019;-74
2023/10/10 02:14:37;;;;;;;16.10;8.30;;;14.00;99.90;;;;;;5055907;28;20064;-74
2023/10/10 02:17:08;;;;;;;13.77;8.73;;;14.00;99.90;;;;;;5050408;28;20025;-73
2023/10/10 02:19:39;;;;;;;12.77;8.40;;;14.00;99.90;;;;;;5066805;28;20096;-73
2023/10/10 02:22:19;;;;;;;17.65;9.15;;;14.00;99.90;;;;;;5067875;28;20028;-73
2023/10/10 02:24:49;;;;;;;17.55;8.60;;;14.00;99.90;;;;;;5068092;28;20033;-74
2023/10/10 02:27:22;;;;;;;14.10;8.50;;;13.90;99.90;;;;;;5054427;28;20028;-72
2023/10/10 02:29:48;;;;;;;15.40;8.85;;;13.90;99.90;;;;;;5068240;28;20017;-73
2023/10/10 02:32:18;;;;;;;14.35;8.38;;;13.90;99.90;;;;;;5067416;28;20028;-73
2023/10/10 02:35:13;;;;;;;14.43;8.18;;;13.90;99.90;;;;;;5050119;28;20052;-74
2023/10/10 02:37:41;;;;;;;15.13;7.55;;;13.90;99.90;;;;;;5049948;28;20017;-73
2023/10/10 02:40:14;;;;;;;13.50;7.60;;;13.90;99.90;;;;;;5053939;28;20052;-73
2023/10/10 02:42:40;;;;;;;;;;;13.80;99.90;;;;;;5049840;28;21901;-73
2023/10/10 02:45:13;;;;;;;14.03;8.43;;;13.80;99.90;;;;;;5059553;28;19909;-73
2023/10/10 02:47:44;;;;;;;14.57;8.03;;;13.80;99.90;;;;;;5054217;28;20096;-73
2023/10/10 02:50:38;;;;;;;16.33;8.65;;;13.70;99.90;;;;;;5069407;28;20027;-73
2023/10/10 02:53:00;;;;;;;16.77;8.60;;;13.80;99.90;;;;;;5069690;28;20017;-73
2023/10/10 02:55:33;;;;;;;14.87;8.27;;;13.70;99.90;;;;;;5051571;28;20045;-73
2023/10/10 02:58:02;;;;;;;16.50;9.27;;;13.70;99.90;;;;;;5070553;28;21128;-73
2023/10/10 03:00:28;;;;;;;12.77;7.87;;;13.70;99.90;;;;;;5070915;28;20088;-73
2023/10/10 03:02:59;;;;;;;16.00;8.37;;;13.60;99.90;;;;;;5071083;28;20143;-73
2023/10/10 03:05:50;;;;;;;14.97;8.37;;;13.60;99.90;;;;;;5070379;28;20028;-72
2023/10/10 03:08:19;;;;;;;16.27;8.68;;;13.60;99.90;;;;;;5070130;28;20092;-72
2023/10/10 03:10:54;;;;;;;14.93;8.67;;;13.60;99.90;;;;;;5068214;28;20013;-72
2023/10/10 03:19:37;;;;;;;14.53;8.07;;;13.60;99.90;;;;;;5055121;28;20035;-73
2023/10/10 03:27:36;;;;;;;16.45;8.82;;;13.50;99.90;;;;;;5066326;28;20025;-73
2023/10/10 03:29:47;;;;;;;21.63;9.03;;;13.50;99.90;;;;;;5065160;28;20025;-73
2023/10/10 03:34:55;;;;;;;22.45;9.50;;;13.40;99.90;;;;;;5068038;28;20037;-75
2023/10/10 03:37:29;;;;;;;18.70;8.50;;;13.40;99.90;;;;;;5068039;28;20021;-73
2023/10/10 03:39:58;;;;;;;14.53;9.07;;;13.40;99.90;;;;;;5051380;28;20033;-73
2023/10/10 05:24:51;;;;;;;12.50;7.40;;;13.00;99.90;;;;;;5070207;28;20033;-73
2023/10/10 05:27:29;;;;;;;15.27;7.40;;;13.00;99.90;;;;;;5070396;28;20105;-73
2023/10/10 05:29:55;;;;;;;13.80;7.50;;;13.00;99.90;;;;;;5069209;28;20015;-73
2023/10/10 05:32:22;;;;;;;15.03;7.40;;;12.90;99.90;;;;;;5068251;28;20029;-72
2023/10/10 05:34:49;;;;;;;16.03;7.17;;;12.90;99.90;;;;;;5070390;28;20029;-73
2023/10/10 05:37:15;;;;;;;14.37;7.23;;;12.90;99.90;;;;;;5052626;28;20156;-72
2023/10/10 05:39:40;;;;;;;13.70;7.67;;;12.90;99.90;;;;;;5069811;28;20041;-73
2023/10/10 05:42:08;;;;;;;13.13;8.03;;;12.90;99.90;;;;;;5053169;28;20022;-72
2023/10/10 05:44:38;;;;;;;12.13;6.97;;;12.90;99.90;;;;;;5050103;28;20025;-72
2023/10/10 05:47:07;;;;;;;13.63;6.67;;;12.90;99.90;;;;;;5069218;28;20001;-73
2023/10/10 05:49:32;;;;;;;13.87;7.70;;;12.90;99.90;;;;;;5069802;28;20017;-73
2023/10/10 05:51:58;;;;;;;14.67;7.77;;;12.90;99.90;;;;;;5053346;28;20009;-72
2023/10/10 05:54:24;;;;;;;13.70;7.47;;;12.90;99.90;;;;;;5070998;28;20210;-73
2023/10/10 05:56:50;;;;;;;15.27;8.23;;;12.80;99.90;;;;;;5069479;28;20013;-74
2023/10/10 05:59:15;;;;;;;14.07;8.07;;;12.90;99.90;;;;;;5051953;28;20051;-74
2023/10/10 06:01:41;;;;;;;18.47;7.87;;;12.90;99.90;;;;;;5069483;28;20044;-73
2023/10/10 06:04:07;;;;;;;19.60;9.93;;;12.90;99.90;;;;;;5051862;28;20055;-73
2023/10/10 06:06:33;;;;;;;11.20;7.43;;;12.90;99.90;;;;;;5048834;28;20050;-73
2023/10/10 06:09:04;;;;;;;14.67;8.33;;;12.90;99.90;;;;;;5051287;28;20041;-74
2023/10/10 06:11:31;;;;;;;20.53;9.53;;;12.90;99.90;;;;;;5055432;28;20009;-74
2023/10/10 06:13:57;;;;;;;14.50;8.37;;;12.90;99.90;;;;;;5068505;28;20028;-74
2023/10/10 06:16:23;;;;;;;15.33;7.77;;;12.90;99.90;;;;;;5050957;28;20041;-73
2023/10/10 06:18:50;;;;;;;17.37;7.80;;;13.00;99.90;;;;;;5070149;28;20025;-74
2023/10/10 06:21:18;;;;;;;16.33;8.40;;;12.90;99.90;;;;;;5054262;28;20025;-73
2023/10/10 06:23:48;;;;;;;21.40;9.13;;;12.90;99.90;;;;;;5070637;28;20073;-73
2023/10/10 06:26:21;;;;;;;19.37;7.97;;;12.90;99.90;;;;;;5069746;28;20462;-74
2023/10/10 06:28:47;;;;;;;;;;;13.00;99.90;;;;;;5068683;28;20043;-72
2023/10/10 06:31:17;;;;;;;19.13;8.23;;;13.00;99.90;;;;;;5067325;28;19905;-73
2023/10/10 06:33:57;;;;;;;18.90;9.10;;;13.10;99.90;;;;;;5068841;28;20021;-73
2023/10/10 06:41:36;;;;;;;19.10;8.27;;;13.10;99.90;;;;;;5067633;28;20025;-73
2023/10/10 06:44:04;;;;;;;15.97;9.50;;;13.10;99.90;;;;;;5066692;28;20029;-73
2023/10/10 06:46:37;;;;;;;27.07;10.20;;;13.20;99.90;;;;;;5050787;28;20060;-74
2023/10/10 06:49:06;;;;;;;18.57;10.67;;;13.20;99.90;;;;;;5067079;28;20021;-73
2023/10/10 06:51:39;;;;;;;17.07;11.00;;;13.20;99.90;;;;;;5067188;28;20046;-74
2023/10/10 06:54:09;;;;;;;25.30;10.97;;;13.30;99.90;;;;;;5049078;28;20051;-73
2023/10/10 06:56:45;;;;;;;22.08;11.10;;;13.30;99.90;;;;;;5053877;28;20013;-74
2023/10/10 06:59:25;;;;;;;25.92;12.10;;;13.40;99.90;;;;;;5048810;28;20020;-74
2023/10/10 07:01:50;;;;;;;18.70;9.40;;;13.40;99.90;;;;;;5065426;28;20052;-74
2023/10/10 07:04:19;;;;;;;17.70;10.03;;;13.50;99.90;;;;;;5048860;28;20353;-73
2023/10/10 07:06:47;;;;;;;38.03;13.88;;;13.50;99.90;;;;;;5067047;28;20071;-74
2023/10/10 07:09:29;;;;;;;22.02;11.50;;;13.60;99.90;;;;;;5056361;28;20043;-74
2023/10/10 07:12:09;;;;;;;22.48;9.75;;;13.60;99.90;;;;;;5052286;28;20027;-74
2023/10/10 07:14:43;;;;;;;17.45;10.30;;;13.70;99.90;;;;;;5065767;28;20033;-78
2023/10/10 07:17:11;;;;;;;20.95;9.50;;;13.70;99.90;;;;;;5062410;28;20028;-75
2023/10/10 07:22:28;;;;;;;19.23;9.07;;;13.80;99.90;;;;;;5063837;28;20052;-75
2023/10/10 07:25:06;;;;;;;17.83;9.45;;;13.90;99.90;;;;;;5051938;28;20017;-74
2023/10/10 07:27:35;;;;;;;18.67;8.50;;;14.00;99.90;;;;;;5047559;28;20037;-74
2023/10/10 07:30:19;;;;;;;15.48;8.75;;;14.00;99.90;;;;;;5064044;28;20055;-74
2023/10/10 07:32:48;;;;;;;22.67;9.77;;;14.10;99.90;;;;;;5050822;28;20041;-74
2023/10/10 07:35:25;;;;;;;20.63;9.13;;;14.20;99.90;;;;;;5048497;28;20128;-74
2023/10/10 07:37:52;;;;;;;13.75;7.93;;;14.20;99.90;;;;;;5047126;28;20061;-73
2023/10/10 07:40:21;;;;;;;16.55;9.73;;;14.20;99.90;;;;;;5042515;28;20021;-74
2023/10/10 07:42:50;;;;;;;21.35;9.25;;;14.30;99.90;;;;;;5049400;28;20059;-73
2023/10/10 07:50:49;;;;;;;18.33;9.88;;;14.30;99.90;;;;;;5046589;28;20022;-74
2023/10/10 07:53:17;;;;;;;15.45;8.82;;;14.50;99.90;;;;;;5045004;28;20038;-75
2023/10/10 07:56:03;;;;;;;21.23;10.35;;;14.50;99.90;;;;;;5044470;28;20022;-74
2023/10/10 07:58:44;;;;;;;15.80;10.00;;;14.60;99.90;;;;;;5028488;28;20021;-74
2023/10/10 08:01:16;;;;;;;16.15;8.10;;;14.60;99.90;;;;;;5045681;28;20034;-74
2023/10/10 08:03:45;;;;;;;20.52;10.05;;;14.60;99.90;;;;;;5045866;28;20017;-74
2023/10/10 08:06:24;;;;;;;17.77;9.43;;;14.70;99.90;;;;;;5040204;28;20153;-74
2023/10/10 08:09:10;;;;;;;14.68;8.52;;;14.70;99.90;;;;;;5045696;28;20009;-73
2023/10/10 08:11:36;;;;;;;16.73;8.85;;;14.70;99.90;;;;;;5042989;28;20159;-73
2023/10/10 08:14:09;;;;;;;18.73;8.48;;;14.80;99.90;;;;;;5044446;28;20022;-73
2023/10/10 08:16:35;;;;;;;;;;;14.90;99.90;;;;;;5030780;28;20049;-73
2023/10/10 08:19:04;;;;;;;22.73;9.25;;;14.80;99.90;;;;;;5044077;28;20391;-73
2023/10/10 08:21:38;;;;;;;14.18;7.72;;;15.00;99.90;;;;;;5043727;28;20021;-73
2023/10/10 08:24:08;;;;;;;18.23;9.23;;;15.00;99.90;;;;;;5044253;28;20037;-73
2023/10/10 08:26:40;;;;;;;16.92;8.60;;;15.10;99.90;;;;;;5044045;28;20025;-73
2023/10/10 08:29:10;;;;;;;15.88;8.15;;;15.10;99.90;;;;;;5027253;28;20026;-73
2023/10/10 08:31:42;;;;;;;16.02;8.05;;;15.20;99.90;;;;;;5044003;28;20006;-73
2023/10/10 08:34:11;;;;;;;12.23;7.68;;;15.30;99.90;;;;;;5045948;28;20071;-73
2023/10/10 08:36:43;;;;;;;18.85;8.43;;;15.40;99.90;;;;;;5043313;28;20234;-73
2023/10/10 08:39:24;;;;;;;12.18;7.32;;;15.40;99.90;;;;;;5033891;28;20022;-73
2023/10/10 08:41:52;;;;;;;16.02;7.10;;;15.50;99.90;;;;;;5044405;28;20093;-73
2023/10/10 08:44:19;;;;;;;18.88;7.93;;;15.50;99.90;;;;;;5043905;28;20211;-77
2023/10/10 08:46:46;;;;;;;12.05;6.88;;;15.60;99.90;;;;;;5033352;28;20047;-75
2023/10/10 08:49:14;;;;;;;12.77;6.90;;;15.70;99.90;;;;;;5041019;28;20033;-74
2023/10/10 08:51:42;;;;;;;20.13;8.93;;;15.70;99.90;;;;;;5032335;28;20041;-76
2023/10/10 08:54:12;;;;;;;14.93;7.95;;;15.90;99.90;;;;;;5028824;28;20037;-74
2023/10/10 08:56:42;;;;;;;13.73;6.20;;;15.80;99.90;;;;;;5040152;28;20042;-75
2023/10/10 08:59:11;;;;;;;12.98;7.35;;;16.00;99.90;;;;;;5041170;28;20045;-74
2023/10/10 09:01:37;;;;;;;13.45;6.13;;;16.10;99.90;;;;;;5033746;28;20038;-78
2023/10/10 09:04:05;;;;;;;13.32;6.35;;;16.20;99.90;;;;;;5042871;28;20021;-73
2023/10/10 09:06:43;;;;;;;18.13;6.45;;;16.30;99.90;;;;;;5042431;28;20041;-73
2023/10/10 09:09:33;;;;;;;11.73;6.00;;;16.40;99.90;;;;;;5043930;28;20025;-76
2023/10/10 09:11:56;;;;;;;15.88;6.38;;;16.50;99.90;;;;;;5042035;28;20048;-78
2023/10/10 09:14:41;;;;;;;11.95;5.72;;;16.60;99.90;;;;;;5039747;28;20033;-76
2023/10/10 09:17:14;;;;;;;16.45;6.57;;;16.70;99.90;;;;;;5042122;28;20034;-77
2023/10/10 09:19:46;;;;;;;;;;;16.80;99.90;;;;;;5034266;28;20034;-77
2023/10/10 09:22:25;;;;;;;18.02;7.47;;;16.90;99.90;;;;;;5027628;28;19921;-77
2023/10/10 09:24:55;;;;;;;10.93;5.90;;;17.00;99.90;;;;;;5008526;28;20476;-80
2023/10/10 09:27:22;;;;;;;14.90;6.97;;;17.00;99.90;;;;;;5020216;28;20084;-80
2023/10/10 09:29:54;;;;;;;13.05;6.25;;;17.00;99.90;;;;;;5021582;28;20041;-79
2023/10/10 09:32:27;;;;;;;22.55;7.38;;;17.10;99.90;;;;;;5021994;28;20048;-80
2023/10/10 09:34:54;;;;;;;16.48;5.82;;;17.20;99.90;;;;;;5021248;28;20045;-81
2023/10/10 09:37:30;;;;;;;12.82;6.45;;;17.30;99.90;;;;;;5003525;28;20022;-83
2023/10/10 09:39:56;;;;;;;17.85;6.03;;;17.40;99.90;;;;;;5021255;28;20037;-81
2023/10/10 09:45:27;;;;;;;15.20;5.95;;;17.50;99.90;;;;;;5021472;28;20044;-80
2023/10/10 09:47:56;;;;;;;10.57;6.05;;;17.60;99.90;;;;;;5023049;28;20033;-82
2023/10/10 09:50:34;;;;;;;10.85;5.38;;;17.60;99.90;;;;;;5028559;28;20037;-80
2023/10/10 09:53:01;;;;;;;13.05;5.65;;;17.70;99.90;;;;;;5019314;28;20048;-85
2023/10/10 10:09:16;;;;;;;10.00;4.43;;;18.00;99.90;;;;;;5019635;28;20041;-86
2023/10/10 10:12:19;;;;;;;17.67;6.03;;;18.10;99.90;;;;;;5018106;28;20027;-84
2023/10/10 10:15:16;;;;;;;9.93;4.97;;;18.20;99.90;;;;;;5022243;28;20060;-81
2023/10/10 10:18:11;;;;;;;10.55;5.43;;;18.20;99.90;;;;;;5003442;28;20074;-80
2023/10/10 10:20:46;;;;;;;13.60;5.50;;;18.30;99.90;;;;;;5021761;28;20014;-78
2023/10/10 10:23:33;;;;;;;9.65;5.50;;;18.30;99.90;;;;;;5008555;28;20021;-78
2023/10/10 10:26:12;;;;;;;18.42;7.40;;;18.40;99.90;;;;;;5006233;28;20036;-80
2023/10/10 10:28:56;;;;;;;19.40;6.22;;;18.40;99.90;;;;;;5021454;28;20036;-80
2023/10/10 10:31:29;;;;;;;20.33;6.70;;;18.50;99.90;;;;;;5002877;28;20026;-76
2023/10/10 10:34:05;;;;;;;17.45;6.00;;;18.50;99.90;;;;;;5021233;28;20029;-78
2023/10/10 10:36:45;;;;;;;7.97;5.00;;;18.60;99.90;;;;;;5008296;28;20025;-79
2023/10/10 10:39:25;;;;;;;12.48;5.63;;;18.60;99.90;;;;;;5021444;28;20072;-79
2023/10/10 10:41:53;;;;;;;13.32;5.53;;;18.50;99.90;;;;;;5004806;28;21757;-80
2023/10/10 10:44:28;;;;;;;15.00;5.60;;;18.50;99.90;;;;;;5007410;28;20045;-77
2023/10/10 10:46:57;;;;;;;12.90;5.32;;;18.60;99.90;;;;;;5007314;28;20033;-80
2023/10/10 10:49:28;;;;;;;12.40;5.90;;;18.60;99.90;;;;;;5019078;28;20025;-77
2023/10/10 10:52:17;;;;;;;10.57;5.68;;;18.60;99.90;;;;;;5019513;28;21676;-78
2023/10/10 10:54:43;;;;;;;11.13;4.50;;;18.70;99.90;;;;;;5019221;28;20111;-79
2023/10/10 10:57:13;;;;;;;9.75;4.57;;;18.70;99.90;;;;;;5019713;28;20079;-78
2023/10/10 10:59:55;;;;;;;12.98;5.93;;;18.70;99.90;;;;;;5019174;28;20037;-79
2023/10/10 11:02:35;;;;;;;13.63;5.25;;;18.80;99.90;;;;;;5017889;28;20120;-81
2023/10/10 11:05:06;;;;;;;17.42;5.18;;;18.80;99.90;;;;;;5019318;28;20095;-79
2023/10/10 11:07:41;;;;;;;10.68;4.88;;;18.80;99.90;;;;;;5018324;28;20446;-78
2023/10/10 11:10:07;;;;;;;14.25;5.90;;;18.90;99.90;;;;;;5017545;28;21715;-79
2023/10/10 11:12:36;;;;;;;12.40;4.65;;;18.90;99.90;;;;;;5016572;28;20619;-79
2023/10/10 11:15:10;;;;;;;11.13;4.95;;;18.90;99.90;;;;;;5016495;28;20350;-78
2023/10/10 11:17:39;;;;;;;10.73;4.55;;;19.00;99.90;;;;;;5001057;28;20602;-79
2023/10/10 11:20:29;;;;;;;11.32;4.82;;;19.00;99.90;;;;;;5010269;28;20072;-78
2023/10/10 11:23:06;;;;;;;14.15;5.32;;;18.90;99.90;;;;;;5017321;28;20029;-79
2023/10/10 11:25:41;;;;;;;9.30;4.70;;;19.00;99.90;;;;;;5016165;28;20030;-79
2023/10/10 11:28:21;;;;;;;12.05;5.93;;;19.10;99.90;;;;;;5001879;28;20026;-79
2023/10/10 11:30:49;;;;;;;9.75;5.25;;;19.10;99.90;;;;;;5017961;28;20385;-78
2023/10/10 11:33:17;;;;;;;10.32;4.65;;;19.20;99.90;;;;;;5015209;28;20053;-78
2023/10/10 11:35:50;;;;;;;9.57;4.63;;;19.40;99.90;;;;;;5014403;28;20029;-78
2023/10/10 11:38:34;;;;;;;10.20;3.95;;;19.50;99.90;;;;;;5017038;28;20021;-78
2023/10/10 11:41:08;;;;;;;8.98;5.05;;;19.70;99.90;;;;;;5000113;28;20029;-78
2023/10/10 11:43:37;;;;;;;11.45;4.75;;;19.80;99.90;;;;;;4999171;28;20022;-77
2023/10/10 11:46:03;;;;;;;12.00;4.60;;;19.90;99.90;;;;;;5016081;28;20048;-78
2023/10/10 11:48:29;;;;;;;10.85;5.15;;;20.00;99.90;;;;;;5016899;28;20034;-78
2023/10/10 11:50:59;;;;;;;13.60;5.22;;;20.00;99.90;;;;;;5009314;28;20071;-77
2023/10/10 11:53:27;;;;;;;8.23;4.43;;;20.00;99.90;;;;;;5016372;28;20030;-79
2023/10/10 11:56:04;;;;;;;8.57;4.68;;;20.10;99.90;;;;;;5016270;28;20161;-80
2023/10/10 11:58:35;;;;;;;7.88;3.92;;;20.10;99.90;;;;;;5006739;28;20126;-81
2023/10/10 12:01:05;;;;;;;13.95;4.85;;;20.20;99.90;;;;;;5017489;28;20029;-78
2023/10/10 12:08:50;;;;;;;10.07;4.35;;;20.40;99.90;;;;;;5016491;28;20037;-79
2023/10/10 12:11:20;;;;;;;14.43;5.55;;;20.50;99.90;;;;;;5016148;28;20029;-79
2023/10/10 12:13:50;;;;;;;8.27;4.03;;;20.60;99.90;;;;;;5018454;28;20030;-78
2023/10/10 12:16:23;;;;;;;10.23;4.40;;;20.70;99.90;;;;;;5011586;28;20090;-77
2023/10/10 12:18:52;;;;;;;14.38;4.50;;;20.80;99.90;;;;;;5017172;28;20037;-79
2023/10/10 12:21:22;;;;;;;10.65;4.05;;;20.90;99.90;;;;;;5003943;28;20117;-79
2023/10/10 12:23:54;;;;;;;9.63;4.30;;;21.00;99.90;;;;;;5017447;28;20029;-79
2023/10/10 12:26:22;;;;;;;12.75;4.18;;;21.00;99.90;;;;;;5015895;28;20037;-78
2023/10/10 12:28:53;;;;;;;9.73;3.80;;;21.20;99.90;;;;;;4998846;28;20101;-79
2023/10/10 12:31:23;;;;;;;9.75;4.68;;;21.20;99.90;;;;;;5007596;28;20195;-79
2023/10/10 12:33:54;;;;;;;13.70;4.40;;;21.30;99.90;;;;;;5014656;28;20115;-84
2023/10/10 12:36:28;;;;;;;13.48;4.10;;;21.40;99.90;;;;;;5016045;28;20034;-81
2023/10/10 12:38:58;;;;;;;6.78;3.85;;;21.60;99.90;;;;;;4999072;28;20032;-85
2023/10/10 12:41:27;;;;;;;15.82;4.57;;;21.70;99.90;;;;;;5001092;28;20025;-83
2023/10/10 12:43:53;;;;;;;11.05;4.07;;;21.80;99.90;;;;;;5018145;28;20030;-81
2023/10/10 12:46:20;;;;;;;9.93;3.95;;;21.90;99.90;;;;;;5013387;28;22003;-85
2023/10/10 12:48:49;;;;;;;11.05;4.43;;;22.00;99.90;;;;;;5017947;28;20040;-84
2023/10/10 12:51:19;;;;;;;8.07;3.90;;;22.00;99.90;;;;;;5013509;28;20044;-79
2023/10/10 12:53:45;;;;;;;11.68;4.00;;;22.10;99.90;;;;;;5014682;28;20044;-81
2023/10/10 12:56:21;;;;;;;7.95;3.47;;;22.10;99.90;;;;;;5018395;28;20042;-84
2023/10/10 12:58:52;;;;;;;7.50;3.70;;;22.20;99.90;;;;;;5002372;28;20026;-85
2023/10/10 13:01:25;;;;;;;7.82;3.88;;;22.20;99.90;;;;;;5007179;28;20037;-83
2023/10/10 13:03:54;;;;;;;10.25;4.00;;;22.30;99.90;;;;;;5016946;28;20030;-81
2023/10/10 13:06:23;;;;;;;11.80;3.45;;;22.40;99.90;;;;;;5017194;28;20104;-84
2023/10/10 13:08:55;;;;;;;9.40;4.03;;;22.60;99.90;;;;;;5016966;28;20553;-78
2023/10/10 13:11:32;;;;;;;12.50;4.53;;;23.20;99.90;;;;;;5019973;28;21408;-84
2023/10/10 13:14:08;;;;;;;14.35;4.03;;;25.10;99.90;;;;;;5000863;28;20110;-81
2023/10/10 13:16:52;;;;;;;14.13;4.13;;;27.50;95.90;;;;;;5001861;28;20510;-81
2023/10/10 13:19:21;;;;;;;9.65;3.35;;;;;;;;;;5018543;28;20030;-82
2023/10/10 13:21:47;;;;;;;10.88;3.65;;;;;;;;;;5020474;28;20046;-81
2023/10/10 13:24:13;;;;;;;8.52;3.85;;;;;;;;;;5018264;28;20029;-81
2023/10/10 13:26:49;;;;;;;10.23;3.40;;;;;;;;;;5017331;28;20029;-82
2023/10/10 13:29:16;;;;;;;12.23;3.30;;;;;;;;;;5020431;28;20029;-82
2023/10/10 13:31:44;;;;;;;8.32;3.78;;;;;;;;;;5018178;28;20021;-84
2023/10/10 13:34:10;;;;;;;8.32;3.67;;;;;;;;;;5016178;28;20038;-83
2023/10/10 13:36:36;;;;;;;12.00;3.85;;;;;;;;;;5000184;28;21312;-84
2023/10/10 13:39:07;;;;;;;11.60;4.75;;;;;;;;;;5015857;28;20473;-80
2023/10/10 13:41:36;;;;;;;14.55;3.90;;;;;;;;;;5002296;28;20450;-82
2023/10/10 13:44:03;;;;;;;12.60;4.47;;;;;;;;;;5015803;28;20043;-81
2023/10/10 13:46:35;;;;;;;15.70;5.05;;;;;;;;;;5016497;28;20034;-82
2023/10/10 13:49:08;;;;;;;8.95;3.95;;;;;;;;;;5015810;28;20076;-87
2023/10/10 13:51:40;;;;;;;10.10;4.13;;;;;;;;;;5001393;28;20753;-83
2023/10/10 13:54:06;;;;;;;11.57;4.18;;;;;;;;;;5015440;28;20101;-82
2023/10/10 13:56:32;;;;;;;8.95;4.10;;;;;;;;;;5007014;28;20057;-82
2023/10/10 13:59:01;;;;;;;10.88;3.75;;;;;;;;;;5016282;28;20694;-83
2023/10/10 14:04:00;;;;;;;8.55;3.83;;;;;;;;;;5016781;28;20449;-83
2023/10/10 14:06:27;;;;;;;12.85;3.72;;;;;;;;;;5016919;28;20046;-83
2023/10/10 14:08:54;;;;;;;10.55;4.05;;;;;;;;;;5015682;28;20030;-81
2023/10/10 14:11:22;;;;;;;12.82;4.15;;;;;;;;;;5016668;28;20345;-84
2023/10/10 14:13:55;;;;;;;16.67;4.72;;;;;;;;;;5000643;28;20122;-83
2023/10/10 14:16:22;;;;;;;17.77;4.50;;;;;;;;;;5015816;28;20038;-82
2023/10/10 14:18:51;;;;;;;14.35;3.90;;;;;;;;;;5005124;28;20076;-81
2023/10/10 14:21:24;;;;;;;10.63;3.83;;;;;;;;;;5016486;28;20029;-82
2023/10/10 14:23:50;;;;;;;8.25;3.10;;;;;;;;;;5016991;28;20460;-86
2023/10/10 14:26:26;;;;;;;8.98;3.83;;;;;;;;;;5015622;28;20021;-84
2023/10/10 14:28:55;;;;;;;9.00;3.95;;;;;;;;;;5015499;28;20048;-83
2023/10/10 14:31:22;;;;;;;9.05;3.92;;;;;;;;;;5004082;28;20079;-82
2023/10/10 14:33:51;;;;;;;9.13;4.10;;;;;;;;;;5001044;28;20033;-84
2023/10/10 14:36:17;;;;;;;17.75;4.28;;;;;;;;;;5018664;28;20026;-83
2023/10/10 14:38:49;;;;;;;11.52;4.22;;;;;;;;;;5015785;28;20021;-83
2023/10/10 14:41:19;;;;;;;;;;;;;;;;;;5015273;28;20029;-79
2023/10/10 14:43:47;;;;;;;11.75;3.80;;;;;;;;;;5008067;28;19917;-80
2023/10/10 14:46:32;;;;;;;11.50;3.97;;;;;;;;;;5019151;28;20055;-78
2023/10/10 14:49:16;;;;;;;12.23;4.47;;;;;;;;;;5017605;28;20036;-84
2023/10/10 14:51:48;;;;;;;11.63;3.97;;;;;;;;;;5019113;28;20560;-84
2023/10/10 14:54:17;;;;;;;7.22;3.65;;;;;;;;;;5016188;28;20029;-81
2023/10/10 14:56:50;;;;;;;12.57;4.65;;;;;;;;;;5017689;28;20029;-82
2023/10/10 14:59:24;;;;;;;10.73;4.00;;;;;;;;;;5016565;28;20864;-80
2023/10/10 15:01:50;;;;;;;18.10;3.75;;;;;;;;;;5017423;28;20076;-81
2023/10/10 15:04:28;;;;;;;15.35;4.05;;;;;;;;;;5001464;28;20048;-82
2023/10/10 15:06:54;;;;;;;17.02;5.30;;;;;;;;;;5018079;28;20018;-81
2023/10/10 15:09:23;;;;;;;10.02;4.20;;;;;;;;;;5015919;28;20089;-81
2023/10/10 15:11:50;;;;;;;14.48;4.03;;;;;;;;;;5016472;28;20090;-80
2023/10/10 15:14:18;;;;;;;12.98;4.30;;;;;;;;;;5015878;28;20077;-81
2023/10/10 15:16:47;;;;;;;18.08;4.63;;;;;;;;;;5005007;28;20431;-79
2023/10/10 15:19:13;;;;;;;10.80;3.70;;;;;;;;;;5004967;28;20032;-80
2023/10/10 15:21:39;;;;;;;30.83;4.80;;;;;;;;;;5014761;28;20034;-83
2023/10/10 15:24:11;;;;;;;13.13;4.80;;;;;;;;;;4999309;28;20028;-82
2023/10/10 15:26:40;;;;;;;12.82;4.78;;;;;;;;;;5014813;28;20029;-81
2023/10/10 15:29:10;;;;;;;11.88;4.25;;;;;;;;;;5004760;28;20021;-82
2023/10/10 15:31:36;;;;;;;15.50;4.82;;;;;;;;;;5014369;28;20099;-82
2023/10/10 15:34:03;;;;;;;12.80;3.83;;;;;;;;;;5015583;28;20048;-82
2023/10/10 15:36:32;;;;;;;10.05;4.20;;;;;;;;;;5003482;28;20048;-80
2023/10/10 15:39:04;;;;;;;10.98;4.47;;;;;;;;;;5013936;28;21718;-83
2023/10/10 15:41:31;;;;;;;12.65;4.72;;;;;;;;;;5015899;28;20071;-83
2023/10/10 15:44:02;;;;;;;11.57;4.32;;;;;;;;;;4999478;28;20034;-83
2023/10/10 15:46:28;;;;;;;10.80;4.40;;;;;;;;;;4999396;28;20049;-81
2023/10/10 15:48:55;;;;;;;15.32;4.85;;;;;;;;;;5004922;28;20111;-82
2023/10/10 15:51:24;;;;;;;16.88;4.80;;;;;;;;;;4998653;28;20042;-82
2023/10/10 15:53:53;;;;;;;12.93;4.65;;;;;;;;;;5014417;28;20144;-81
2023/10/10 15:56:26;;;;;;;12.52;4.40;;;;;;;;;;5016861;28;20025;-79
2023/10/10 15:58:53;;;;;;;16.00;4.65;;;;;;;;;;5000997;28;20029;-83
2023/10/10 16:01:27;;;;;;;14.50;4.18;;;;;;;;;;5015845;28;20033;-82
2023/10/10 16:03:54;;;;;;;17.08;4.72;;;;;;;;;;5014763;28;20358;-83